createdAt,value
2023-02-22T00:02:27.215Z,17.90
2023-02-22T00:04:55.967Z,19.00
2023-02-22T00:07:24.974Z,18.53
2023-02-22T00:09:53.469Z,19.80
2023-02-22T00:12:23.224Z,18.10
2023-02-22T00:14:51.893Z,20.80
2023-02-22T00:17:20.920Z,20.07
2023-02-22T00:19:50.638Z,21.13
2023-02-22T00:22:20.662Z,21.63
2023-02-22T00:24:50.445Z,20.63
2023-02-22T00:27:18.936Z,18.60
2023-02-22T00:29:49.177Z,20.13
2023-02-22T00:32:17.685Z,20.20
2023-02-22T00:34:46.063Z,18.63
2023-02-22T00:37:14.542Z,18.70
2023-02-22T00:39:43.090Z,18.57
2023-02-22T00:42:11.535Z,19.77
2023-02-22T00:44:40.078Z,21.93
2023-02-22T00:47:10.559Z,17.67
2023-02-22T00:49:39.284Z,19.50
2023-02-22T00:52:09.230Z,19.30
2023-02-22T00:54:37.756Z,19.47
2023-02-22T00:57:06.150Z,19.87
2023-02-22T00:59:34.662Z,16.90
2023-02-22T01:02:03.166Z,18.53
2023-02-22T01:04:33.149Z,18.97
2023-02-22T01:07:01.607Z,18.37
2023-02-22T01:09:30.053Z,18.63
2023-02-22T01:11:58.810Z,20.17
2023-02-22T01:14:28.237Z,18.80
2023-02-22T01:16:57.847Z,18.90
2023-02-22T01:19:26.321Z,20.37
2023-02-22T01:21:56.198Z,20.87
2023-02-22T01:24:24.567Z,20.37
2023-02-22T01:26:55.290Z,19.57
2023-02-22T01:29:23.740Z,20.27
2023-02-22T01:31:55.617Z,20.53
2023-02-22T01:34:26.013Z,17.40
2023-02-22T01:36:56.734Z,20.10
2023-02-22T01:39:25.327Z,19.80
2023-02-22T01:41:54.609Z,19.83
2023-02-22T01:44:30.805Z,20.40
2023-02-22T01:47:03.199Z,18.93
2023-02-22T01:49:36.660Z,19.97
2023-02-22T01:52:10.692Z,21.07
2023-02-22T01:54:43.458Z,20.53
2023-02-22T01:57:19.058Z,20.80
2023-02-22T01:59:52.545Z,19.80
2023-02-22T02:02:25.342Z,22.30
2023-02-22T02:04:57.447Z,20.50
2023-02-22T02:07:29.903Z,19.83
2023-02-22T02:10:01.388Z,19.53
2023-02-22T02:12:33.670Z,18.67
2023-02-22T02:15:22.857Z,19.97
2023-02-22T02:17:56.593Z,16.63
2023-02-22T02:20:35.192Z,17.37
2023-02-22T02:23:25.478Z,19.53
2023-02-22T02:26:30.328Z,19.83
2023-02-22T02:29:28.767Z,18.00
2023-02-22T02:32:23.650Z,18.90
2023-02-22T02:35:03.088Z,19.00
2023-02-22T02:37:42.210Z,19.57
2023-02-22T02:40:21.852Z,19.03
2023-02-22T02:43:01.290Z,16.80
2023-02-22T02:45:38.337Z,19.77
2023-02-22T02:48:13.964Z,18.57
2023-02-22T02:50:48.013Z,17.30
2023-02-22T02:53:22.288Z,17.47
2023-02-22T02:55:51.515Z,17.10
2023-02-22T02:58:24.333Z,17.93
2023-02-22T03:00:59.771Z,17.97
2023-02-22T03:04:08.285Z,18.53
2023-02-22T03:07:07.083Z,16.70
2023-02-22T03:09:49.910Z,17.90
2023-02-22T03:12:34.368Z,19.43
2023-02-22T03:15:21.877Z,18.53
2023-02-22T03:18:02.292Z,18.60
2023-02-22T03:20:43.260Z,18.30
2023-02-22T03:23:24.783Z,19.40
2023-02-22T03:25:59.400Z,17.40
2023-02-22T03:28:31.285Z,15.80
2023-02-22T03:31:07.148Z,17.23
2023-02-22T03:33:43.662Z,14.90
2023-02-22T03:36:17.999Z,15.20
2023-02-22T03:38:48.897Z,18.60
2023-02-22T03:41:24.046Z,15.47
2023-02-22T03:43:59.711Z,17.07
2023-02-22T03:46:30.607Z,16.73
2023-02-22T03:49:06.494Z,17.00
2023-02-22T03:51:40.750Z,14.60
2023-02-22T03:54:16.429Z,16.43
2023-02-22T03:56:54.355Z,16.17
2023-02-22T03:59:27.749Z,15.00
2023-02-22T04:01:57.498Z,13.97
2023-02-22T04:04:26.848Z,15.07
2023-02-22T04:06:57.038Z,13.80
2023-02-22T04:09:26.335Z,15.40
2023-02-22T04:11:54.953Z,15.20
2023-02-22T04:14:23.975Z,15.90
2023-02-22T04:16:52.639Z,15.00
2023-02-22T04:19:21.146Z,17.37
2023-02-22T04:21:51.382Z,20.53
2023-02-22T04:24:25.625Z,20.07
2023-02-22T04:26:55.695Z,18.30
2023-02-22T04:29:24.866Z,16.87
2023-02-22T04:31:53.301Z,15.70
2023-02-22T04:34:22.018Z,16.33
2023-02-22T04:36:50.885Z,15.30
2023-02-22T04:39:19.539Z,16.30
2023-02-22T04:41:49.710Z,13.27
2023-02-22T04:44:18.394Z,15.13
2023-02-22T04:46:47.081Z,15.67
2023-02-22T04:49:17.315Z,15.10
2023-02-22T04:51:47.335Z,15.80
2023-02-22T04:54:17.664Z,16.50
2023-02-22T04:56:50.022Z,17.07
2023-02-22T04:59:19.885Z,18.37
2023-02-22T05:01:55.143Z,16.33
2023-02-22T05:04:24.812Z,16.10
2023-02-22T05:06:55.076Z,15.80
2023-02-22T05:09:23.645Z,15.90
2023-02-22T05:11:53.478Z,13.50
2023-02-22T05:14:22.869Z,15.20
2023-02-22T05:16:51.332Z,16.30
2023-02-22T05:19:19.718Z,14.33
2023-02-22T05:21:48.085Z,15.87
2023-02-22T05:24:16.906Z,15.40
2023-02-22T05:26:46.311Z,16.33
2023-02-22T05:29:16.200Z,16.27
2023-02-22T05:31:44.760Z,16.57
2023-02-22T05:34:14.530Z,16.33
2023-02-22T05:36:42.976Z,14.47
2023-02-22T05:39:12.230Z,14.07
2023-02-22T05:41:40.655Z,14.50
2023-02-22T05:44:09.072Z,14.73
2023-02-22T05:46:39.001Z,13.73
2023-02-22T05:49:07.705Z,14.90
2023-02-22T05:51:36.146Z,16.40
2023-02-22T05:54:04.937Z,16.30
2023-02-22T05:56:33.560Z,16.83
2023-02-22T05:59:02.169Z,17.13
2023-02-22T06:01:30.519Z,14.93
2023-02-22T06:04:00.356Z,17.80
2023-02-22T06:06:28.773Z,18.27
2023-02-22T06:08:57.243Z,17.93
2023-02-22T06:11:25.676Z,17.37
2023-02-22T06:13:55.065Z,17.50
2023-02-22T06:16:24.158Z,20.17
2023-02-22T06:18:52.722Z,18.13
2023-02-22T06:21:22.620Z,20.23
2023-02-22T06:23:51.152Z,18.37
2023-02-22T06:26:21.155Z,19.20
2023-02-22T06:28:50.300Z,16.80
2023-02-22T06:31:19.130Z,16.20
2023-02-22T06:33:47.833Z,14.67
2023-02-22T06:36:16.428Z,15.53
2023-02-22T06:38:46.319Z,13.20
2023-02-22T06:41:15.841Z,14.00
2023-02-22T06:43:44.537Z,15.13
2023-02-22T06:46:14.048Z,14.80
2023-02-22T06:48:43.097Z,14.10
2023-02-22T06:51:11.917Z,14.40
2023-02-22T06:53:40.410Z,15.10
2023-02-22T06:56:10.432Z,15.07
2023-02-22T06:58:39.022Z,15.83
2023-02-22T07:01:08.332Z,15.50
2023-02-22T07:03:37.116Z,14.90
2023-02-22T07:06:08.306Z,14.70
2023-02-22T07:08:36.740Z,15.87
2023-02-22T07:11:05.653Z,15.03
2023-02-22T07:13:35.455Z,15.23
2023-02-22T07:16:03.962Z,16.20
2023-02-22T07:18:32.706Z,17.00
2023-02-22T07:21:01.396Z,15.30
2023-02-22T07:23:29.951Z,16.93
2023-02-22T07:26:01.569Z,16.00
2023-02-22T07:28:30.156Z,16.87
2023-02-22T07:31:01.464Z,18.87
2023-02-22T07:33:30.020Z,22.03
2023-02-22T07:35:58.558Z,22.37
2023-02-22T07:38:27.103Z,23.43
2023-02-22T07:40:57.855Z,22.90
2023-02-22T07:43:27.801Z,22.07
2023-02-22T07:46:00.797Z,22.13
2023-02-22T07:48:31.852Z,21.17
2023-02-22T07:51:00.760Z,21.20
2023-02-22T07:53:33.399Z,20.17
2023-02-22T07:56:05.181Z,21.67
2023-02-22T07:58:35.472Z,20.07
2023-02-22T08:01:06.031Z,18.03
2023-02-22T08:03:38.224Z,18.70
2023-02-22T08:06:09.267Z,18.53
2023-02-22T08:08:38.209Z,18.87
2023-02-22T08:11:06.882Z,18.43
2023-02-22T08:13:37.173Z,18.20
2023-02-22T08:16:07.584Z,18.90
2023-02-22T08:18:38.430Z,19.97
2023-02-22T08:21:07.244Z,18.90
2023-02-22T08:23:36.052Z,19.47
2023-02-22T08:26:10.893Z,19.67
2023-02-22T08:28:39.467Z,20.77
2023-02-22T08:31:09.678Z,21.37
2023-02-22T08:33:38.077Z,22.33
2023-02-22T08:36:09.835Z,20.67
2023-02-22T08:38:38.406Z,22.23
2023-02-22T08:41:06.951Z,20.87
2023-02-22T08:43:35.716Z,20.40
2023-02-22T08:46:04.192Z,21.53
2023-02-22T08:48:34.142Z,20.37
2023-02-22T08:51:02.974Z,19.10
2023-02-22T08:53:33.232Z,21.73
2023-02-22T08:56:01.680Z,19.00
2023-02-22T08:58:30.100Z,17.33
2023-02-22T09:00:58.531Z,18.80
2023-02-22T09:03:27.213Z,19.33
2023-02-22T09:05:59.549Z,18.03
2023-02-22T09:08:28.214Z,17.60
2023-02-22T09:10:56.677Z,18.30
2023-02-22T09:13:25.151Z,21.47
2023-02-22T09:15:53.561Z,17.97
2023-02-22T09:18:21.999Z,18.27
2023-02-22T09:20:50.397Z,18.37
2023-02-22T09:23:21.733Z,18.33
2023-02-22T09:25:50.765Z,18.43
2023-02-22T09:28:19.542Z,16.53
2023-02-22T09:30:48.313Z,17.00
2023-02-22T09:33:20.185Z,16.40
2023-02-22T09:35:50.874Z,15.97
2023-02-22T09:38:24.876Z,15.37
2023-02-22T09:41:02.980Z,14.50
2023-02-22T09:43:42.997Z,14.70
2023-02-22T09:46:24.362Z,16.27
2023-02-22T09:49:03.562Z,13.97
2023-02-22T09:51:41.321Z,14.83
2023-02-22T09:54:23.119Z,13.50
2023-02-22T09:56:57.968Z,14.20
2023-02-22T09:59:32.911Z,15.43
2023-02-22T10:02:15.105Z,14.30
2023-02-22T10:04:49.963Z,13.40
2023-02-22T10:07:26.151Z,14.40
2023-02-22T10:09:58.570Z,13.67
2023-02-22T10:12:38.506Z,13.67
2023-02-22T10:15:37.145Z,13.10
2023-02-22T10:18:37.225Z,11.87
2023-02-22T10:21:14.886Z,12.97
2023-02-22T10:23:56.460Z,14.00
2023-02-22T10:26:30.654Z,12.60
2023-02-22T10:29:04.837Z,14.23
2023-02-22T10:31:38.373Z,13.00
2023-02-22T10:34:15.390Z,13.10
2023-02-22T10:36:45.097Z,12.20
2023-02-22T10:39:27.377Z,12.50
2023-02-22T10:42:06.182Z,11.60
2023-02-22T10:44:35.179Z,11.70
2023-02-22T10:47:07.176Z,11.07
2023-02-22T10:49:41.286Z,12.70
2023-02-22T10:52:19.490Z,12.93
2023-02-22T10:54:51.827Z,11.53
2023-02-22T10:57:26.561Z,11.63
2023-02-22T10:59:57.927Z,12.10
2023-02-22T11:02:31.306Z,13.50
2023-02-22T11:05:02.265Z,14.53
2023-02-22T11:07:33.284Z,12.37
2023-02-22T11:10:05.009Z,11.33
2023-02-22T11:12:37.614Z,14.03
2023-02-22T11:15:30.078Z,13.43
2023-02-22T11:18:01.888Z,12.50
2023-02-22T11:20:35.492Z,12.97
2023-02-22T11:23:08.208Z,12.70
2023-02-22T11:25:40.218Z,14.27
2023-02-22T11:28:17.634Z,12.23
2023-02-22T11:30:52.182Z,13.17
2023-02-22T11:33:24.870Z,13.50
2023-02-22T11:35:55.744Z,12.57
2023-02-22T11:38:26.650Z,13.43
2023-02-22T11:41:16.797Z,13.40
2023-02-22T11:43:52.354Z,12.23
2023-02-22T11:46:23.152Z,12.57
2023-02-22T11:49:01.616Z,13.20
2023-02-22T11:51:46.402Z,13.47
2023-02-22T11:54:46.300Z,12.50
2023-02-22T11:57:36.212Z,13.60
2023-02-22T12:00:24.649Z,12.90
2023-02-22T12:03:18.756Z,13.20
2023-02-22T12:06:03.150Z,13.57
2023-02-22T12:08:52.301Z,14.33
2023-02-22T12:11:28.813Z,12.40
2023-02-22T12:14:12.956Z,13.20
2023-02-22T12:17:06.522Z,12.20
2023-02-22T12:19:39.119Z,13.93
2023-02-22T12:22:14.461Z,13.73
2023-02-22T12:24:48.918Z,14.13
2023-02-22T12:27:27.378Z,13.70
2023-02-22T12:30:04.449Z,13.47
2023-02-22T12:32:42.680Z,13.63
2023-02-22T12:52:20.829Z,7.70
2023-02-22T12:58:41.275Z,23.90
2023-02-22T13:17:02.806Z,25.13
2023-02-22T13:19:41.423Z,26.67
2023-02-22T13:22:15.997Z,24.93
2023-02-22T13:24:56.761Z,24.93
2023-02-22T13:27:29.749Z,25.10
2023-02-22T13:30:01.674Z,25.63
2023-02-22T13:32:45.434Z,25.37
2023-02-22T13:35:35.683Z,26.50
2023-02-22T13:38:51.218Z,25.97
2023-02-22T13:41:38.962Z,25.60
2023-02-22T13:44:28.632Z,26.17
2023-02-22T13:47:17.670Z,24.90
2023-02-22T13:50:18.734Z,26.13
2023-02-22T13:52:47.927Z,25.83
2023-02-22T13:55:21.054Z,23.87
2023-02-22T13:57:51.781Z,24.17
2023-02-22T14:00:42.662Z,26.27
2023-02-22T14:03:40.983Z,26.03
2023-02-22T14:06:38.270Z,25.20
2023-02-22T14:09:19.114Z,25.63
2023-02-22T14:11:57.148Z,27.30
2023-02-22T14:14:25.941Z,28.10
2023-02-22T14:17:31.084Z,33.57
2023-02-22T14:20:32.170Z,28.40
2023-02-22T14:23:35.576Z,29.47
2023-02-22T14:26:19.198Z,25.43
2023-02-22T14:28:55.612Z,27.37
2023-02-22T14:31:36.060Z,27.60
2023-02-22T14:34:12.218Z,26.97
2023-02-22T14:36:52.174Z,34.27
2023-02-22T14:39:37.510Z,31.80
2023-02-22T14:42:12.572Z,34.10
2023-02-22T14:44:50.927Z,28.83
2023-02-22T14:47:22.903Z,28.47
2023-02-22T14:49:54.832Z,28.33
2023-02-22T14:52:27.185Z,27.77
2023-02-22T14:55:16.252Z,28.60
2023-02-22T14:57:56.885Z,29.80
2023-02-22T15:00:31.872Z,27.73
2023-02-22T15:03:02.103Z,29.67
2023-02-22T15:05:38.602Z,30.50
2023-02-22T15:08:10.859Z,29.80
2023-02-22T15:10:45.923Z,28.80
2023-02-22T15:13:20.017Z,30.20
2023-02-22T15:15:50.532Z,31.37
2023-02-22T15:18:27.151Z,31.60
2023-02-22T15:21:00.019Z,29.90
2023-02-22T15:23:40.167Z,30.83
2023-02-22T15:26:16.563Z,33.17
2023-02-22T15:28:45.270Z,35.90
2023-02-22T15:31:26.242Z,37.40
2023-02-22T15:33:55.566Z,37.20
2023-02-22T15:36:31.078Z,36.90
2023-02-22T15:38:59.650Z,35.73
2023-02-22T15:41:33.014Z,38.33
2023-02-22T15:44:17.646Z,41.70
2023-02-22T15:46:51.205Z,42.30
2023-02-22T15:49:23.306Z,43.63
2023-02-22T15:52:07.892Z,46.70
2023-02-22T15:54:47.511Z,46.40
2023-02-22T15:57:21.772Z,45.37
2023-02-22T15:59:54.372Z,47.40
2023-02-22T16:02:37.060Z,49.37
2023-02-22T16:05:12.283Z,50.20
2023-02-22T16:07:46.118Z,50.47
2023-02-22T16:10:32.973Z,52.23
2023-02-22T16:13:19.177Z,52.83
2023-02-22T16:15:59.104Z,50.03
2023-02-22T16:18:33.224Z,54.80
2023-02-22T16:21:11.856Z,53.37
2023-02-22T16:23:48.933Z,54.83
2023-02-22T16:26:29.941Z,53.20
2023-02-22T16:29:02.130Z,55.47
2023-02-22T16:31:33.870Z,56.70
2023-02-22T16:34:03.608Z,56.90
2023-02-22T16:36:42.084Z,56.23
2023-02-22T16:39:15.561Z,83.03
2023-02-22T16:41:43.975Z,81.30
2023-02-22T16:44:14.409Z,67.30
2023-02-22T16:46:43.282Z,70.60
2023-02-22T16:49:12.459Z,68.60
2023-02-22T16:51:44.884Z,71.07
2023-02-22T16:54:15.854Z,71.57
2023-02-22T16:56:44.166Z,70.23
2023-02-22T16:59:16.566Z,71.77
2023-02-22T17:01:45.461Z,73.23
2023-02-22T17:04:17.763Z,73.13
2023-02-22T17:06:46.287Z,72.47
2023-02-22T17:09:15.378Z,74.33
2023-02-22T17:11:44.753Z,74.77
2023-02-22T17:14:20.439Z,72.40
2023-02-22T17:16:49.088Z,71.03
2023-02-22T17:19:21.221Z,70.57
2023-02-22T17:21:50.054Z,72.43
2023-02-22T17:24:23.177Z,71.70
2023-02-22T17:26:53.291Z,73.50
2023-02-22T17:29:24.328Z,73.30
2023-02-22T17:31:54.144Z,74.47
2023-02-22T17:34:22.854Z,71.90
2023-02-22T17:36:51.645Z,76.33
2023-02-22T17:39:20.651Z,74.87
2023-02-22T17:41:55.101Z,80.97
2023-02-22T17:44:25.311Z,79.07
2023-02-22T17:46:53.912Z,77.97
2023-02-22T17:49:22.342Z,80.43
2023-02-22T17:51:53.192Z,83.33
2023-02-22T17:54:23.078Z,81.30
2023-02-22T17:56:51.732Z,131.60
2023-02-22T17:59:20.161Z,89.30
2023-02-22T18:01:50.242Z,90.73
2023-02-22T18:04:18.708Z,90.80
2023-02-22T18:06:47.555Z,84.57
2023-02-22T18:09:17.687Z,80.27
2023-02-22T18:11:46.426Z,84.30
2023-02-22T18:14:14.836Z,80.80
2023-02-22T18:16:43.420Z,79.30
2023-02-22T18:19:13.239Z,87.93
2023-02-22T18:21:41.737Z,89.10
2023-02-22T18:24:10.112Z,82.77
2023-02-22T18:26:39.128Z,83.30
2023-02-22T18:29:07.752Z,87.77
2023-02-22T18:31:36.199Z,87.63
2023-02-22T18:34:04.810Z,84.63
2023-02-22T18:36:34.584Z,84.90
2023-02-22T18:39:03.967Z,80.60
2023-02-22T18:41:32.392Z,82.77
2023-02-22T18:44:00.893Z,78.87
2023-02-22T18:46:30.340Z,79.17
2023-02-22T18:48:59.486Z,80.27
2023-02-22T18:51:29.050Z,86.00
2023-02-22T18:54:01.057Z,81.03
2023-02-22T18:56:31.163Z,81.03
2023-02-22T18:59:01.764Z,84.60
2023-02-22T19:01:31.280Z,82.90
2023-02-22T19:04:01.384Z,88.97
2023-02-22T19:06:29.860Z,87.17
2023-02-22T19:09:02.344Z,84.10
2023-02-22T19:11:30.726Z,87.37
2023-02-22T19:13:59.641Z,84.43
2023-02-22T19:16:29.108Z,83.37
2023-02-22T19:18:58.897Z,84.57
2023-02-22T19:21:31.160Z,81.20
2023-02-22T19:24:04.532Z,84.53
2023-02-22T19:26:33.104Z,81.00
2023-02-22T19:29:06.401Z,83.60
2023-02-22T19:31:35.549Z,80.23
2023-02-22T19:34:08.729Z,82.27
2023-02-22T19:36:40.175Z,81.50
2023-02-22T19:39:10.261Z,79.30
2023-02-22T19:41:39.613Z,78.17
2023-02-22T19:44:08.985Z,74.60
2023-02-22T19:46:38.001Z,77.47
2023-02-22T19:49:07.191Z,76.97
2023-02-22T19:51:36.455Z,73.07
2023-02-22T19:54:07.635Z,73.60
2023-02-22T19:56:37.671Z,71.70
2023-02-22T19:59:13.379Z,66.63
2023-02-22T20:01:44.575Z,68.70
2023-02-22T20:04:18.242Z,63.87
2023-02-22T20:06:49.212Z,62.97
2023-02-22T20:09:21.028Z,65.07
2023-02-22T20:11:51.952Z,64.03
2023-02-22T20:14:24.376Z,60.87
2023-02-22T20:16:53.002Z,61.03
2023-02-22T20:19:22.564Z,57.80
2023-02-22T20:21:52.377Z,60.43
2023-02-22T20:24:21.066Z,60.30
2023-02-22T20:26:51.459Z,64.37
2023-02-22T20:29:21.063Z,59.40
2023-02-22T20:31:53.695Z,59.27
2023-02-22T20:34:23.657Z,60.23
2023-02-22T20:36:53.420Z,60.27
2023-02-22T20:39:22.031Z,58.30
2023-02-22T20:41:52.716Z,57.70
2023-02-22T20:44:21.481Z,59.17
2023-02-22T20:46:50.483Z,58.17
2023-02-22T20:49:21.393Z,60.10
2023-02-22T20:51:50.438Z,63.00
2023-02-22T20:54:19.274Z,61.47
2023-02-22T20:56:52.852Z,62.90
2023-02-22T20:59:23.439Z,63.53
2023-02-22T21:01:53.204Z,63.53
2023-02-22T21:04:22.745Z,61.07
2023-02-22T21:06:51.961Z,65.23
2023-02-22T21:09:21.752Z,62.17
2023-02-22T21:11:50.475Z,62.43
2023-02-22T21:14:19.956Z,63.37
2023-02-22T21:16:51.708Z,60.80
2023-02-22T21:19:25.755Z,59.90
2023-02-22T21:21:56.433Z,61.67
2023-02-22T21:24:26.000Z,62.80
2023-02-22T21:26:55.727Z,61.87
2023-02-22T21:29:24.146Z,56.97
2023-02-22T21:31:54.116Z,60.50
2023-02-22T21:34:22.689Z,65.47
2023-02-22T21:36:52.509Z,60.70
2023-02-22T21:39:21.583Z,58.10
2023-02-22T21:41:52.072Z,62.67
2023-02-22T21:44:20.831Z,57.63
2023-02-22T21:46:53.561Z,61.60
2023-02-22T21:49:23.626Z,60.77
2023-02-22T21:51:53.143Z,57.30
2023-02-22T21:54:21.899Z,61.87
2023-02-22T21:56:51.603Z,64.57
2023-02-22T21:59:23.470Z,61.43
2023-02-22T22:01:56.577Z,62.43
2023-02-22T22:04:27.879Z,64.03
2023-02-22T22:06:58.794Z,60.97
2023-02-22T22:09:33.362Z,61.03
2023-02-22T22:12:04.989Z,64.63
2023-02-22T22:14:35.462Z,60.50
2023-02-22T22:17:09.819Z,63.27
2023-02-22T22:19:40.758Z,60.03
2023-02-22T22:22:09.705Z,64.17
2023-02-22T22:24:41.586Z,61.33
2023-02-22T22:27:12.888Z,65.97
2023-02-22T22:29:43.587Z,61.70
2023-02-22T22:32:13.970Z,66.50
2023-02-22T22:34:43.250Z,61.83
2023-02-22T22:37:13.288Z,62.30
2023-02-22T22:39:42.504Z,67.90
2023-02-22T22:42:11.686Z,63.10
2023-02-22T22:44:42.084Z,67.50
2023-02-22T22:47:13.711Z,64.90
2023-02-22T22:49:42.670Z,68.60
2023-02-22T22:52:13.950Z,63.53
2023-02-22T22:54:43.385Z,63.23
2023-02-22T22:57:12.270Z,67.50
2023-02-22T22:59:40.848Z,62.13
2023-02-22T23:02:11.686Z,64.77
2023-02-22T23:04:41.459Z,60.47
2023-02-22T23:07:10.095Z,61.73
2023-02-22T23:09:39.536Z,65.63
2023-02-22T23:12:16.970Z,64.87
2023-02-22T23:14:47.052Z,64.37
2023-02-22T23:17:31.306Z,64.33
2023-02-22T23:20:01.849Z,61.63
2023-02-22T23:22:30.382Z,66.80
2023-02-22T23:25:00.991Z,67.87
2023-02-22T23:27:29.455Z,62.43
2023-02-22T23:29:58.216Z,64.70
2023-02-22T23:32:27.926Z,67.70
2023-02-22T23:34:56.722Z,61.90
2023-02-22T23:37:26.651Z,66.40
2023-02-22T23:39:55.258Z,65.50
2023-02-22T23:42:23.923Z,66.20
2023-02-22T23:44:53.078Z,61.70
2023-02-22T23:47:23.203Z,66.90
2023-02-22T23:49:51.654Z,69.30
2023-02-22T23:52:24.133Z,63.17
2023-02-22T23:54:54.510Z,63.33
2023-02-22T23:57:24.228Z,67.43
2023-02-22T23:59:52.628Z,64.37
